sensor_id;sensor_type;location;lat;lon;timestamp;pressure;altitude;pressure_sealevel;temperature;humidity
63281;BME280;49406;51.044;3.766;2023-06-26T00:01:46;101449.78;;;21.82;70.06
63281;BME280;49406;51.044;3.766;2023-06-26T00:04:21;101445.84;;;21.77;69.60
63281;BME280;49406;51.044;3.766;2023-06-26T00:06:56;101443.51;;;21.72;69.54
63281;BME280;49406;51.044;3.766;2023-06-26T00:09:30;101441.56;;;21.65;69.60
63281;BME280;49406;51.044;3.766;2023-06-26T00:12:06;101443.23;;;21.56;70.00
63281;BME280;49406;51.044;3.766;2023-06-26T00:14:41;101441.77;;;21.52;70.59
63281;BME280;49406;51.044;3.766;2023-06-26T00:17:15;101438.01;;;21.45;70.74
63281;BME280;49406;51.044;3.766;2023-06-26T00:19:50;101441.19;;;21.40;70.96
63281;BME280;49406;51.044;3.766;2023-06-26T00:22:25;101443.16;;;21.33;71.40
63281;BME280;49406;51.044;3.766;2023-06-26T00:24:59;101450.77;;;21.28;71.95
63281;BME280;49406;51.044;3.766;2023-06-26T00:27:35;101464.39;;;21.23;72.80
63281;BME280;49406;51.044;3.766;2023-06-26T00:30:11;101462.77;;;21.17;73.29
63281;BME280;49406;51.044;3.766;2023-06-26T00:32:46;101468.96;;;21.11;73.81
63281;BME280;49406;51.044;3.766;2023-06-26T00:35:21;101466.08;;;21.06;74.67
63281;BME280;49406;51.044;3.766;2023-06-26T00:37:55;101461.86;;;21.04;75.15
63281;BME280;49406;51.044;3.766;2023-06-26T00:40:32;101460.63;;;21.03;75.64
63281;BME280;49406;51.044;3.766;2023-06-26T00:43:06;101464.90;;;21.09;75.91
63281;BME280;49406;51.044;3.766;2023-06-26T00:45:41;101463.47;;;21.10;76.53
63281;BME280;49406;51.044;3.766;2023-06-26T00:48:16;101463.98;;;21.04;77.66
63281;BME280;49406;51.044;3.766;2023-06-26T00:50:51;101466.56;;;21.00;78.05
63281;BME280;49406;51.044;3.766;2023-06-26T00:53:25;101470.69;;;20.99;78.62
63281;BME280;49406;51.044;3.766;2023-06-26T00:56:00;101472.98;;;20.92;79.35
63281;BME280;49406;51.044;3.766;2023-06-26T00:58:35;101482.02;;;20.87;79.60
63281;BME280;49406;51.044;3.766;2023-06-26T01:01:10;101486.25;;;20.80;81.17
63281;BME280;49406;51.044;3.766;2023-06-26T01:03:51;101478.98;;;20.79;81.58
63281;BME280;49406;51.044;3.766;2023-06-26T01:06:27;101484.43;;;20.81;81.47
63281;BME280;49406;51.044;3.766;2023-06-26T01:09:04;101479.61;;;20.75;82.49
63281;BME280;49406;51.044;3.766;2023-06-26T01:11:39;101476.41;;;20.69;83.49
63281;BME280;49406;51.044;3.766;2023-06-26T01:14:13;101469.00;;;20.67;84.41
63281;BME280;49406;51.044;3.766;2023-06-26T01:16:50;101471.16;;;20.65;84.95
63281;BME280;49406;51.044;3.766;2023-06-26T01:19:28;101470.44;;;20.65;85.07
63281;BME280;49406;51.044;3.766;2023-06-26T01:22:02;101474.81;;;20.68;85.23
63281;BME280;49406;51.044;3.766;2023-06-26T01:24:56;101475.43;;;20.64;85.78
63281;BME280;49406;51.044;3.766;2023-06-26T01:27:35;101478.03;;;20.59;86.88
63281;BME280;49406;51.044;3.766;2023-06-26T01:30:12;101479.01;;;20.56;87.72
63281;BME280;49406;51.044;3.766;2023-06-26T01:32:47;101481.36;;;20.54;87.91
63281;BME280;49406;51.044;3.766;2023-06-26T01:35:22;101480.80;;;20.55;88.34
63281;BME280;49406;51.044;3.766;2023-06-26T01:38:12;101481.71;;;20.46;88.85
63281;BME280;49406;51.044;3.766;2023-06-26T01:40:45;101488.28;;;20.37;89.74
63281;BME280;49406;51.044;3.766;2023-06-26T01:43:26;101493.56;;;20.31;90.93
63281;BME280;49406;51.044;3.766;2023-06-26T01:46:06;101496.73;;;20.33;91.05
63281;BME280;49406;51.044;3.766;2023-06-26T01:48:49;101498.34;;;20.24;92.39
63281;BME280;49406;51.044;3.766;2023-06-26T01:51:32;101503.70;;;20.13;94.88
63281;BME280;49406;51.044;3.766;2023-06-26T01:54:14;101505.77;;;20.07;94.96
63281;BME280;49406;51.044;3.766;2023-06-26T01:56:54;101506.63;;;20.09;95.67
63281;BME280;49406;51.044;3.766;2023-06-26T01:59:30;101515.36;;;20.07;95.03
63281;BME280;49406;51.044;3.766;2023-06-26T02:02:05;101517.29;;;20.00;95.90
63281;BME280;49406;51.044;3.766;2023-06-26T02:04:41;101523.46;;;19.93;97.62
63281;BME280;49406;51.044;3.766;2023-06-26T02:07:15;101526.10;;;19.86;98.36
63281;BME280;49406;51.044;3.766;2023-06-26T02:09:50;101527.52;;;19.86;98.57
63281;BME280;49406;51.044;3.766;2023-06-26T02:12:25;101529.37;;;19.81;99.94
63281;BME280;49406;51.044;3.766;2023-06-26T02:14:59;101531.27;;;19.75;99.95
63281;BME280;49406;51.044;3.766;2023-06-26T02:17:34;101530.91;;;19.66;100.00
63281;BME280;49406;51.044;3.766;2023-06-26T02:20:10;101535.09;;;19.60;100.00
63281;BME280;49406;51.044;3.766;2023-06-26T02:22:44;101538.23;;;19.62;100.00
63281;BME280;49406;51.044;3.766;2023-06-26T02:25:17;101537.31;;;19.54;100.00
63281;BME280;49406;51.044;3.766;2023-06-26T02:27:52;101541.16;;;19.45;100.00
63281;BME280;49406;51.044;3.766;2023-06-26T02:30:26;101539.05;;;19.36;100.00
63281;BME280;49406;51.044;3.766;2023-06-26T02:33:01;101536.77;;;19.34;100.00
63281;BME280;49406;51.044;3.766;2023-06-26T02:35:34;101539.23;;;19.35;100.00
63281;BME280;49406;51.044;3.766;2023-06-26T02:38:09;101542.95;;;19.35;100.00
63281;BME280;49406;51.044;3.766;2023-06-26T02:40:43;101547.30;;;19.28;100.00
63281;BME280;49406;51.044;3.766;2023-06-26T02:43:18;101552.08;;;19.19;100.00
63281;BME280;49406;51.044;3.766;2023-06-26T02:45:52;101552.31;;;19.16;100.00
63281;BME280;49406;51.044;3.766;2023-06-26T02:48:25;101556.89;;;19.18;100.00
63281;BME280;49406;51.044;3.766;2023-06-26T02:51:00;101556.57;;;19.16;100.00
63281;BME280;49406;51.044;3.766;2023-06-26T02:53:35;101559.71;;;19.07;100.00
63281;BME280;49406;51.044;3.766;2023-06-26T02:56:09;101560.52;;;19.01;100.00
63281;BME280;49406;51.044;3.766;2023-06-26T02:58:44;101564.73;;;19.03;100.00
63281;BME280;49406;51.044;3.766;2023-06-26T03:01:18;101566.73;;;19.01;100.00
63281;BME280;49406;51.044;3.766;2023-06-26T03:03:54;101565.88;;;18.97;100.00
63281;BME280;49406;51.044;3.766;2023-06-26T03:06:29;101575.88;;;18.92;100.00
63281;BME280;49406;51.044;3.766;2023-06-26T03:09:03;101574.95;;;18.83;100.00
63281;BME280;49406;51.044;3.766;2023-06-26T03:11:38;101582.29;;;18.78;100.00
63281;BME280;49406;51.044;3.766;2023-06-26T03:14:13;101586.34;;;18.79;100.00
63281;BME280;49406;51.044;3.766;2023-06-26T03:16:47;101587.48;;;18.74;100.00
63281;BME280;49406;51.044;3.766;2023-06-26T03:19:24;101596.42;;;18.68;100.00
63281;BME280;49406;51.044;3.766;2023-06-26T03:21:59;101595.42;;;18.61;100.00
63281;BME280;49406;51.044;3.766;2023-06-26T03:24:33;101599.41;;;18.53;100.00
63281;BME280;49406;51.044;3.766;2023-06-26T03:27:09;101597.89;;;18.48;100.00
63281;BME280;49406;51.044;3.766;2023-06-26T03:29:44;101597.36;;;18.48;100.00
63281;BME280;49406;51.044;3.766;2023-06-26T03:32:18;101598.80;;;18.45;100.00
63281;BME280;49406;51.044;3.766;2023-06-26T03:34:53;101599.60;;;18.38;100.00
63281;BME280;49406;51.044;3.766;2023-06-26T03:37:27;101600.45;;;18.27;100.00
63281;BME280;49406;51.044;3.766;2023-06-26T03:40:02;101599.30;;;18.18;100.00
63281;BME280;49406;51.044;3.766;2023-06-26T03:42:38;101599.83;;;18.19;100.00
63281;BME280;49406;51.044;3.766;2023-06-26T03:45:13;101603.77;;;18.16;100.00
63281;BME280;49406;51.044;3.766;2023-06-26T03:47:47;101611.91;;;18.13;100.00
63281;BME280;49406;51.044;3.766;2023-06-26T03:50:23;101607.22;;;18.06;100.00
63281;BME280;49406;51.044;3.766;2023-06-26T03:52:57;101613.66;;;18.00;100.00
63281;BME280;49406;51.044;3.766;2023-06-26T03:55:32;101617.52;;;18.03;100.00
63281;BME280;49406;51.044;3.766;2023-06-26T03:58:07;101622.30;;;18.02;100.00
63281;BME280;49406;51.044;3.766;2023-06-26T04:00:42;101625.69;;;18.00;100.00
63281;BME280;49406;51.044;3.766;2023-06-26T04:03:16;101626.09;;;17.94;100.00
63281;BME280;49406;51.044;3.766;2023-06-26T04:05:51;101635.51;;;17.90;100.00
63281;BME280;49406;51.044;3.766;2023-06-26T04:08:26;101637.81;;;17.89;100.00
63281;BME280;49406;51.044;3.766;2023-06-26T04:11:01;101641.48;;;17.93;100.00
63281;BME280;49406;51.044;3.766;2023-06-26T04:13:35;101636.02;;;17.92;100.00
63281;BME280;49406;51.044;3.766;2023-06-26T04:16:10;101647.77;;;17.85;100.00
63281;BME280;49406;51.044;3.766;2023-06-26T04:18:45;101656.48;;;17.81;100.00
63281;BME280;49406;51.044;3.766;2023-06-26T04:21:20;101656.43;;;17.85;100.00
63281;BME280;49406;51.044;3.766;2023-06-26T04:23:54;101653.56;;;17.89;100.00
63281;BME280;49406;51.044;3.766;2023-06-26T04:26:29;101650.41;;;17.87;100.00
63281;BME280;49406;51.044;3.766;2023-06-26T04:29:03;101652.39;;;17.82;100.00
63281;BME280;49406;51.044;3.766;2023-06-26T04:31:38;101658.59;;;17.80;100.00
63281;BME280;49406;51.044;3.766;2023-06-26T04:34:13;101652.38;;;17.84;100.00
63281;BME280;49406;51.044;3.766;2023-06-26T04:36:48;101656.05;;;17.88;100.00
63281;BME280;49406;51.044;3.766;2023-06-26T04:39:24;101655.55;;;17.85;100.00
63281;BME280;49406;51.044;3.766;2023-06-26T04:41:58;101667.42;;;17.84;100.00
63281;BME280;49406;51.044;3.766;2023-06-26T04:44:33;101668.45;;;17.86;99.97
63281;BME280;49406;51.044;3.766;2023-06-26T04:47:08;101674.74;;;17.94;99.32
63281;BME280;49406;51.044;3.766;2023-06-26T04:49:42;101680.88;;;18.02;98.50
63281;BME280;49406;51.044;3.766;2023-06-26T04:52:19;101681.95;;;18.00;97.99
63281;BME280;49406;51.044;3.766;2023-06-26T04:54:54;101686.75;;;17.97;97.77
63281;BME280;49406;51.044;3.766;2023-06-26T04:57:28;101684.50;;;17.91;97.77
63281;BME280;49406;51.044;3.766;2023-06-26T05:00:03;101684.69;;;17.89;97.32
63281;BME280;49406;51.044;3.766;2023-06-26T05:02:43;101690.29;;;17.97;96.69
63281;BME280;49406;51.044;3.766;2023-06-26T05:05:17;101700.55;;;17.98;96.43
63281;BME280;49406;51.044;3.766;2023-06-26T05:07:54;101705.69;;;17.98;96.40
63281;BME280;49406;51.044;3.766;2023-06-26T05:10:28;101711.86;;;17.99;96.16
63281;BME280;49406;51.044;3.766;2023-06-26T05:13:03;101705.30;;;18.01;95.83
63281;BME280;49406;51.044;3.766;2023-06-26T05:15:38;101717.58;;;18.11;95.25
63281;BME280;49406;51.044;3.766;2023-06-26T05:18:13;101721.09;;;18.17;94.83
63281;BME280;49406;51.044;3.766;2023-06-26T05:20:50;101720.36;;;18.19;94.51
63281;BME280;49406;51.044;3.766;2023-06-26T05:23:27;101724.24;;;18.19;94.22
63281;BME280;49406;51.044;3.766;2023-06-26T05:26:04;101725.25;;;18.25;94.31
63281;BME280;49406;51.044;3.766;2023-06-26T05:28:39;101728.73;;;18.32;93.56
63281;BME280;49406;51.044;3.766;2023-06-26T05:31:15;101731.27;;;18.42;93.30
63281;BME280;49406;51.044;3.766;2023-06-26T05:33:50;101732.84;;;18.79;91.15
63281;BME280;49406;51.044;3.766;2023-06-26T05:36:28;101731.60;;;19.35;88.61
63281;BME280;49406;51.044;3.766;2023-06-26T05:39:04;101733.47;;;19.89;85.16
63281;BME280;49406;51.044;3.766;2023-06-26T05:41:40;101731.73;;;20.28;82.72
63281;BME280;49406;51.044;3.766;2023-06-26T05:44:14;101733.38;;;20.75;80.01
63281;BME280;49406;51.044;3.766;2023-06-26T05:46:49;101729.98;;;21.10;77.39
63281;BME280;49406;51.044;3.766;2023-06-26T05:49:23;101732.51;;;21.25;75.47
63281;BME280;49406;51.044;3.766;2023-06-26T05:51:59;101736.30;;;21.55;75.34
63281;BME280;49406;51.044;3.766;2023-06-26T05:54:35;101744.09;;;21.95;73.10
63281;BME280;49406;51.044;3.766;2023-06-26T05:57:10;101743.36;;;22.24;70.94
63281;BME280;49406;51.044;3.766;2023-06-26T05:59:48;101745.06;;;22.47;71.01
63281;BME280;49406;51.044;3.766;2023-06-26T06:02:23;101748.61;;;22.74;69.41
63281;BME280;49406;51.044;3.766;2023-06-26T06:04:57;101756.63;;;22.81;66.22
63281;BME280;49406;51.044;3.766;2023-06-26T06:07:32;101757.00;;;22.79;66.17
63281;BME280;49406;51.044;3.766;2023-06-26T06:10:08;101756.23;;;22.83;66.40
63281;BME280;49406;51.044;3.766;2023-06-26T06:12:43;101756.01;;;22.97;65.69
63281;BME280;49406;51.044;3.766;2023-06-26T06:15:18;101763.61;;;23.18;64.73
63281;BME280;49406;51.044;3.766;2023-06-26T06:17:53;101766.95;;;23.37;64.43
63281;BME280;49406;51.044;3.766;2023-06-26T06:20:27;101773.30;;;23.57;63.41
63281;BME280;49406;51.044;3.766;2023-06-26T06:23:02;101787.01;;;23.64;62.67
63281;BME280;49406;51.044;3.766;2023-06-26T06:25:36;101798.30;;;23.63;62.66
63281;BME280;49406;51.044;3.766;2023-06-26T06:28:11;101799.14;;;23.71;62.24
63281;BME280;49406;51.044;3.766;2023-06-26T06:30:49;101798.71;;;23.78;62.12
63281;BME280;49406;51.044;3.766;2023-06-26T06:33:24;101801.05;;;24.00;61.82
63281;BME280;49406;51.044;3.766;2023-06-26T06:35:58;101801.48;;;24.14;60.53
63281;BME280;49406;51.044;3.766;2023-06-26T06:38:33;101804.23;;;24.12;58.78
63281;BME280;49406;51.044;3.766;2023-06-26T06:41:07;101808.14;;;24.02;59.48
63281;BME280;49406;51.044;3.766;2023-06-26T06:43:42;101804.96;;;23.95;58.47
63281;BME280;49406;51.044;3.766;2023-06-26T06:46:17;101813.01;;;23.90;59.72
63281;BME280;49406;51.044;3.766;2023-06-26T06:48:51;101820.95;;;24.09;57.73
63281;BME280;49406;51.044;3.766;2023-06-26T06:51:26;101818.62;;;24.20;56.59
63281;BME280;49406;51.044;3.766;2023-06-26T06:54:01;101826.88;;;24.36;55.96
63281;BME280;49406;51.044;3.766;2023-06-26T06:56:35;101837.09;;;24.45;55.58
63281;BME280;49406;51.044;3.766;2023-06-26T06:59:10;101835.91;;;24.49;54.60
63281;BME280;49406;51.044;3.766;2023-06-26T07:01:45;101837.75;;;24.36;53.44
63281;BME280;49406;51.044;3.766;2023-06-26T07:04:19;101842.50;;;24.22;54.67
63281;BME280;49406;51.044;3.766;2023-06-26T07:06:54;101849.88;;;24.09;53.81
63281;BME280;49406;51.044;3.766;2023-06-26T07:09:28;101846.59;;;24.17;53.67
63281;BME280;49406;51.044;3.766;2023-06-26T07:12:03;101842.51;;;24.22;54.28
63281;BME280;49406;51.044;3.766;2023-06-26T07:14:38;101846.71;;;24.24;54.34
63281;BME280;49406;51.044;3.766;2023-06-26T07:17:13;101844.85;;;24.33;54.24
63281;BME280;49406;51.044;3.766;2023-06-26T07:19:47;101842.38;;;24.38;53.06
63281;BME280;49406;51.044;3.766;2023-06-26T07:22:22;101847.70;;;24.44;53.38
63281;BME280;49406;51.044;3.766;2023-06-26T07:24:57;101851.03;;;24.72;53.38
63281;BME280;49406;51.044;3.766;2023-06-26T07:27:31;101848.96;;;24.75;52.83
63281;BME280;49406;51.044;3.766;2023-06-26T07:30:05;101853.78;;;24.80;53.26
63281;BME280;49406;51.044;3.766;2023-06-26T07:32:44;101854.85;;;25.01;52.60
63281;BME280;49406;51.044;3.766;2023-06-26T07:35:19;101851.02;;;25.23;52.05
63281;BME280;49406;51.044;3.766;2023-06-26T07:37:53;101852.81;;;25.37;51.56
63281;BME280;49406;51.044;3.766;2023-06-26T07:40:28;101848.82;;;25.33;50.79
63281;BME280;49406;51.044;3.766;2023-06-26T07:43:03;101847.07;;;25.42;50.28
63281;BME280;49406;51.044;3.766;2023-06-26T07:45:37;101855.33;;;25.27;48.95
63281;BME280;49406;51.044;3.766;2023-06-26T07:48:12;101858.58;;;25.12;49.03
63281;BME280;49406;51.044;3.766;2023-06-26T07:50:46;101858.81;;;25.15;48.76
63281;BME280;49406;51.044;3.766;2023-06-26T07:53:21;101873.65;;;25.11;49.06
63281;BME280;49406;51.044;3.766;2023-06-26T07:55:56;101881.08;;;24.87;47.81
63281;BME280;49406;51.044;3.766;2023-06-26T07:58:30;101885.25;;;24.64;48.94
63281;BME280;49406;51.044;3.766;2023-06-26T08:01:05;101886.17;;;24.79;49.77
63281;BME280;49406;51.044;3.766;2023-06-26T08:03:39;101878.44;;;25.21;49.15
63281;BME280;49406;51.044;3.766;2023-06-26T08:06:14;101882.17;;;25.51;49.31
63281;BME280;49406;51.044;3.766;2023-06-26T08:08:49;101878.96;;;25.65;47.24
63281;BME280;49406;51.044;3.766;2023-06-26T08:11:24;101890.21;;;25.12;47.11
63281;BME280;49406;51.044;3.766;2023-06-26T08:13:58;101891.95;;;24.99;47.21
63281;BME280;49406;51.044;3.766;2023-06-26T08:16:33;101886.52;;;25.26;47.87
63281;BME280;49406;51.044;3.766;2023-06-26T08:19:08;101879.41;;;25.34;47.63
63281;BME280;49406;51.044;3.766;2023-06-26T08:21:43;101881.70;;;25.40;47.09
63281;BME280;49406;51.044;3.766;2023-06-26T08:24:18;101881.88;;;25.21;46.61
63281;BME280;49406;51.044;3.766;2023-06-26T08:26:52;101890.71;;;25.04;46.79
63281;BME280;49406;51.044;3.766;2023-06-26T08:29:25;101895.84;;;25.06;47.22
63281;BME280;49406;51.044;3.766;2023-06-26T08:32:00;101892.77;;;25.01;47.37
63281;BME280;49406;51.044;3.766;2023-06-26T08:34:35;101888.59;;;24.92;48.11
63281;BME280;49406;51.044;3.766;2023-06-26T08:37:10;101888.62;;;25.12;47.10
63281;BME280;49406;51.044;3.766;2023-06-26T08:39:44;101889.20;;;25.16;46.99
63281;BME280;49406;51.044;3.766;2023-06-26T08:42:19;101889.17;;;25.41;46.36
63281;BME280;49406;51.044;3.766;2023-06-26T08:44:53;101893.10;;;25.51;45.03
63281;BME280;49406;51.044;3.766;2023-06-26T08:47:28;101896.31;;;25.51;44.91
63281;BME280;49406;51.044;3.766;2023-06-26T08:50:08;101895.31;;;25.44;45.34
63281;BME280;49406;51.044;3.766;2023-06-26T08:52:53;101903.29;;;25.46;45.61
63281;BME280;49406;51.044;3.766;2023-06-26T08:55:29;101912.58;;;25.56;44.97
63281;BME280;49406;51.044;3.766;2023-06-26T08:58:06;101909.17;;;25.72;44.39
63281;BME280;49406;51.044;3.766;2023-06-26T09:00:40;101913.66;;;25.71;44.05
63281;BME280;49406;51.044;3.766;2023-06-26T09:03:15;101929.05;;;26.04;43.78
63281;BME280;49406;51.044;3.766;2023-06-26T09:05:50;101934.39;;;26.46;43.22
63281;BME280;49406;51.044;3.766;2023-06-26T09:08:25;101929.66;;;26.61;41.99
63281;BME280;49406;51.044;3.766;2023-06-26T09:10:59;101921.98;;;26.68;41.26
63281;BME280;49406;51.044;3.766;2023-06-26T09:13:34;101917.40;;;26.66;41.68
63281;BME280;49406;51.044;3.766;2023-06-26T09:16:10;101917.67;;;26.86;41.34
63281;BME280;49406;51.044;3.766;2023-06-26T09:18:46;101920.91;;;26.98;40.89
63281;BME280;49406;51.044;3.766;2023-06-26T09:21:21;101913.38;;;26.98;41.41
63281;BME280;49406;51.044;3.766;2023-06-26T09:23:56;101910.40;;;26.62;39.50
63281;BME280;49406;51.044;3.766;2023-06-26T09:26:31;101918.02;;;25.93;39.13
63281;BME280;49406;51.044;3.766;2023-06-26T09:29:06;101926.52;;;26.09;39.71
63281;BME280;49406;51.044;3.766;2023-06-26T09:31:41;101924.90;;;26.32;38.90
63281;BME280;49406;51.044;3.766;2023-06-26T09:34:16;101924.21;;;26.50;38.91
63281;BME280;49406;51.044;3.766;2023-06-26T09:36:54;101930.77;;;26.68;38.66
63281;BME280;49406;51.044;3.766;2023-06-26T09:39:31;101933.96;;;26.65;38.61
63281;BME280;49406;51.044;3.766;2023-06-26T09:42:06;101940.19;;;26.71;39.06
63281;BME280;49406;51.044;3.766;2023-06-26T09:44:45;101941.88;;;26.60;38.87
63281;BME280;49406;51.044;3.766;2023-06-26T09:47:20;101941.70;;;26.52;38.88
63281;BME280;49406;51.044;3.766;2023-06-26T09:49:53;101949.68;;;26.63;38.80
63281;BME280;49406;51.044;3.766;2023-06-26T09:52:28;101964.77;;;26.26;38.29
63281;BME280;49406;51.044;3.766;2023-06-26T09:55:10;101966.45;;;26.33;38.07
63281;BME280;49406;51.044;3.766;2023-06-26T09:57:45;101967.91;;;26.42;37.80
63281;BME280;49406;51.044;3.766;2023-06-26T10:00:21;101968.36;;;26.12;38.80
63281;BME280;49406;51.044;3.766;2023-06-26T10:02:55;101962.91;;;25.57;39.96
63281;BME280;49406;51.044;3.766;2023-06-26T10:05:30;101959.93;;;25.35;41.31
63281;BME280;49406;51.044;3.766;2023-06-26T10:08:06;101963.95;;;25.77;40.75
63281;BME280;49406;51.044;3.766;2023-06-26T10:10:41;101967.73;;;26.24;39.11
63281;BME280;49406;51.044;3.766;2023-06-26T10:13:18;101968.66;;;26.45;39.27
63281;BME280;49406;51.044;3.766;2023-06-26T10:15:56;101967.91;;;26.64;37.77
63281;BME280;49406;51.044;3.766;2023-06-26T10:18:33;101970.98;;;26.41;38.67
63281;BME280;49406;51.044;3.766;2023-06-26T10:21:11;101972.62;;;26.27;38.85
63281;BME280;49406;51.044;3.766;2023-06-26T10:23:48;101968.88;;;26.17;38.99
63281;BME280;49406;51.044;3.766;2023-06-26T10:26:24;101968.55;;;26.21;37.60
63281;BME280;49406;51.044;3.766;2023-06-26T10:28:59;101971.41;;;26.26;36.94
63281;BME280;49406;51.044;3.766;2023-06-26T10:31:34;101971.39;;;26.31;36.65
63281;BME280;49406;51.044;3.766;2023-06-26T10:34:10;101973.55;;;26.35;37.26
63281;BME280;49406;51.044;3.766;2023-06-26T10:36:45;101979.77;;;26.68;38.53
63281;BME280;49406;51.044;3.766;2023-06-26T10:39:21;101972.21;;;27.24;37.44
63281;BME280;49406;51.044;3.766;2023-06-26T10:42:09;101970.48;;;27.14;36.32
63281;BME280;49406;51.044;3.766;2023-06-26T10:44:45;101967.54;;;27.28;36.38
63281;BME280;49406;51.044;3.766;2023-06-26T10:47:33;101973.37;;;27.42;35.67
63281;BME280;49406;51.044;3.766;2023-06-26T10:50:24;101972.96;;;27.23;35.23
63281;BME280;49406;51.044;3.766;2023-06-26T10:53:14;101978.55;;;27.10;35.02
63281;BME280;49406;51.044;3.766;2023-06-26T10:55:54;101977.17;;;27.21;34.74
63281;BME280;49406;51.044;3.766;2023-06-26T10:58:31;101982.35;;;27.43;34.40
63281;BME280;49406;51.044;3.766;2023-06-26T11:01:22;101993.77;;;27.27;33.37
63281;BME280;49406;51.044;3.766;2023-06-26T11:04:06;101992.61;;;26.34;32.98
63281;BME280;49406;51.044;3.766;2023-06-26T11:06:40;102003.83;;;25.84;34.74
63281;BME280;49406;51.044;3.766;2023-06-26T11:09:23;102007.80;;;25.83;35.35
63281;BME280;49406;51.044;3.766;2023-06-26T11:12:01;102004.36;;;26.27;35.53
63281;BME280;49406;51.044;3.766;2023-06-26T11:14:42;102004.70;;;26.68;33.53
63281;BME280;49406;51.044;3.766;2023-06-26T11:17:20;102010.05;;;26.64;33.87
63281;BME280;49406;51.044;3.766;2023-06-26T11:19:55;102013.63;;;26.51;34.59
63281;BME280;49406;51.044;3.766;2023-06-26T11:22:29;102009.59;;;26.40;35.23
63281;BME280;49406;51.044;3.766;2023-06-26T11:25:05;102005.45;;;26.45;35.89
63281;BME280;49406;51.044;3.766;2023-06-26T11:27:41;102009.73;;;26.90;34.45
63281;BME280;49406;51.044;3.766;2023-06-26T11:30:25;102006.20;;;27.18;33.15
63281;BME280;49406;51.044;3.766;2023-06-26T11:33:29;102016.07;;;27.14;32.13
63281;BME280;49406;51.044;3.766;2023-06-26T11:36:10;102014.52;;;26.56;33.09
63281;BME280;49406;51.044;3.766;2023-06-26T11:38:46;102008.34;;;26.16;33.86
63281;BME280;49406;51.044;3.766;2023-06-26T11:41:28;102008.55;;;26.11;34.19
63281;BME280;49406;51.044;3.766;2023-06-26T11:44:05;102016.15;;;26.42;33.06
63281;BME280;49406;51.044;3.766;2023-06-26T11:46:40;102010.77;;;26.51;33.19
63281;BME280;49406;51.044;3.766;2023-06-26T11:49:17;102011.76;;;26.58;34.00
63281;BME280;49406;51.044;3.766;2023-06-26T11:51:54;102011.02;;;26.54;34.44
63281;BME280;49406;51.044;3.766;2023-06-26T11:54:29;102010.91;;;26.15;33.95
63281;BME280;49406;51.044;3.766;2023-06-26T11:57:04;102010.92;;;26.19;34.66
63281;BME280;49406;51.044;3.766;2023-06-26T11:59:40;102017.46;;;26.63;34.34
63281;BME280;49406;51.044;3.766;2023-06-26T12:02:15;102021.02;;;26.81;33.83
63281;BME280;49406;51.044;3.766;2023-06-26T12:04:50;102024.23;;;26.86;33.66
63281;BME280;49406;51.044;3.766;2023-06-26T12:07:25;102024.04;;;26.96;34.76
63281;BME280;49406;51.044;3.766;2023-06-26T12:10:00;102017.27;;;27.08;34.52
63281;BME280;49406;51.044;3.766;2023-06-26T12:12:35;102025.13;;;27.29;34.22
63281;BME280;49406;51.044;3.766;2023-06-26T12:15:13;102025.65;;;27.54;33.58
63281;BME280;49406;51.044;3.766;2023-06-26T12:17:49;102030.36;;;27.45;33.36
63281;BME280;49406;51.044;3.766;2023-06-26T12:20:24;102026.13;;;27.56;33.27
63281;BME280;49406;51.044;3.766;2023-06-26T12:23:00;102019.39;;;27.66;32.54
63281;BME280;49406;51.044;3.766;2023-06-26T12:25:36;102028.30;;;27.35;33.34
63281;BME280;49406;51.044;3.766;2023-06-26T12:28:18;102028.67;;;27.31;33.69
63281;BME280;49406;51.044;3.766;2023-06-26T12:31:15;102023.58;;;26.89;33.50
63281;BME280;49406;51.044;3.766;2023-06-26T12:33:51;102027.77;;;26.56;33.92
63281;BME280;49406;51.044;3.766;2023-06-26T12:36:26;102027.48;;;26.55;33.94
63281;BME280;49406;51.044;3.766;2023-06-26T12:39:02;102022.82;;;26.55;34.30
63281;BME280;49406;51.044;3.766;2023-06-26T12:41:45;102024.56;;;26.51;34.06
63281;BME280;49406;51.044;3.766;2023-06-26T12:44:22;102024.46;;;26.72;33.47
63281;BME280;49406;51.044;3.766;2023-06-26T12:46:58;102022.58;;;26.65;33.42
63281;BME280;49406;51.044;3.766;2023-06-26T12:49:35;102019.59;;;26.55;33.56
63281;BME280;49406;51.044;3.766;2023-06-26T12:52:11;102021.35;;;26.46;34.24
63281;BME280;49406;51.044;3.766;2023-06-26T12:54:46;102020.42;;;26.19;35.03
63281;BME280;49406;51.044;3.766;2023-06-26T12:57:21;102022.54;;;26.11;35.79
63281;BME280;49406;51.044;3.766;2023-06-26T12:59:56;102025.40;;;26.06;36.20
63281;BME280;49406;51.044;3.766;2023-06-26T13:02:30;102029.02;;;26.05;36.42
63281;BME280;49406;51.044;3.766;2023-06-26T13:05:06;102035.44;;;25.87;36.49
63281;BME280;49406;51.044;3.766;2023-06-26T13:07:40;102040.85;;;25.55;36.79
63281;BME280;49406;51.044;3.766;2023-06-26T13:10:15;102040.24;;;25.32;37.02
63281;BME280;49406;51.044;3.766;2023-06-26T13:12:50;102031.66;;;25.05;37.39
63281;BME280;49406;51.044;3.766;2023-06-26T13:15:24;102033.55;;;24.85;37.74
63281;BME280;49406;51.044;3.766;2023-06-26T13:17:59;102036.95;;;24.74;38.20
63281;BME280;49406;51.044;3.766;2023-06-26T13:20:33;102037.45;;;24.80;38.16
63281;BME280;49406;51.044;3.766;2023-06-26T13:23:09;102033.87;;;24.69;37.96
63281;BME280;49406;51.044;3.766;2023-06-26T13:25:43;102035.21;;;24.56;38.18
63281;BME280;49406;51.044;3.766;2023-06-26T13:28:18;102032.83;;;24.68;38.49
63281;BME280;49406;51.044;3.766;2023-06-26T13:30:52;102032.14;;;25.06;38.03
63281;BME280;49406;51.044;3.766;2023-06-26T13:33:27;102037.98;;;25.35;37.13